Time;durP1;ratioP1;P1;durP2;ratioP2;P2;SDS_P1;SDS_P2;PMS_P1;PMS_P2;Temp;Humidity;BMP_temperature;BMP_pressure;BME280_temperature;BME280_humidity;BME280_pressure;Samples;Min_cycle;Max_cycle;Signal;HPM_P1;HPM_P2
2022/01/10 00:00:18;;;;;;;23.08;9.10;;;1.40;99.90;;;;;;5036138;28;20124;-75
2022/01/10 00:02:45;;;;;;;76.72;12.82;;;1.40;99.90;;;;;;5034383;28;20178;-73
2022/01/10 00:05:12;;;;;;;104.40;13.50;;;1.40;99.90;;;;;;5046614;28;20551;-74
2022/01/10 00:07:38;;;;;;;24.52;9.85;;;1.30;99.90;;;;;;5047636;28;20458;-74
2022/01/10 00:10:04;;;;;;;32.63;10.88;;;1.30;99.90;;;;;;5037884;28;20029;-75
2022/01/10 00:12:30;;;;;;;26.85;10.27;;;1.20;99.90;;;;;;5030391;28;20029;-73
2022/01/10 00:14:55;;;;;;;25.05;10.77;;;1.10;99.90;;;;;;5030312;28;20045;-75
2022/01/10 00:17:21;;;;;;;27.35;10.35;;;1.10;99.90;;;;;;5044154;28;20029;-75
2022/01/10 00:19:47;;;;;;;32.60;10.90;;;1.10;99.90;;;;;;5034574;28;20039;-70
2022/01/10 00:22:13;;;;;;;24.38;9.57;;;1.10;99.90;;;;;;5047064;28;20043;-74
2022/01/10 00:24:39;;;;;;;20.48;9.15;;;1.20;99.90;;;;;;5040449;28;20113;-74
2022/01/10 00:27:05;;;;;;;21.35;8.88;;;1.20;99.90;;;;;;5032502;28;20446;-74
2022/01/10 00:29:30;;;;;;;22.98;10.23;;;1.30;99.90;;;;;;5034520;28;20032;-72
2022/01/10 00:31:59;;;;;;;22.77;9.35;;;1.20;99.90;;;;;;5036118;28;20037;-74
2022/01/10 00:34:26;;;;;;;17.90;8.77;;;1.30;99.90;;;;;;5039694;28;20454;-74
2022/01/10 00:36:52;;;;;;;21.23;9.05;;;1.30;99.90;;;;;;5049298;28;20107;-73
2022/01/10 00:39:18;;;;;;;23.70;8.93;;;1.30;99.90;;;;;;5019438;28;20512;-73
2022/01/10 00:41:45;;;;;;;20.38;8.90;;;1.30;99.90;;;;;;5033017;28;20040;-73
2022/01/10 00:44:11;;;;;;;24.30;9.63;;;1.30;99.90;;;;;;5047228;28;20269;-73
2022/01/10 00:46:37;;;;;;;26.15;9.68;;;1.40;99.90;;;;;;5036276;28;20692;-73
2022/01/10 00:49:03;;;;;;;25.00;9.15;;;1.40;99.90;;;;;;5047411;28;20025;-73
2022/01/10 00:51:29;;;;;;;21.35;9.05;;;1.40;99.90;;;;;;5023674;28;20029;-74
2022/01/10 00:53:54;;;;;;;22.13;9.35;;;1.40;99.90;;;;;;5045958;28;20462;-72
2022/01/10 00:56:21;;;;;;;19.67;8.40;;;1.30;99.90;;;;;;5048201;28;20385;-74
2022/01/10 00:58:47;;;;;;;21.50;9.07;;;1.20;99.90;;;;;;5033192;28;20040;-73
2022/01/10 01:01:14;;;;;;;24.23;9.13;;;1.20;99.90;;;;;;5035315;28;20095;-73
2022/01/10 01:03:40;;;;;;;21.17;8.38;;;1.20;99.90;;;;;;5048708;28;20037;-75
2022/01/10 01:06:06;;;;;;;22.85;9.38;;;1.20;99.90;;;;;;5049236;28;20025;-74
2022/01/10 01:08:33;;;;;;;23.83;10.10;;;1.30;99.90;;;;;;5045435;28;20507;-73
2022/01/10 01:14:10;;;;;;;28.00;11.00;;;1.30;99.90;;;;;;5006316;28;20055;-74
2022/01/10 01:24:13;;;;;;;27.35;10.57;;;1.30;99.90;;;;;;5038357;28;20152;-74
2022/01/10 01:26:41;;;;;;;21.58;9.43;;;1.30;99.90;;;;;;5038810;28;20764;-75
2022/01/10 01:29:10;;;;;;;21.92;9.23;;;1.30;99.90;;;;;;5043672;28;20036;-73
2022/01/10 01:31:36;;;;;;;21.02;9.20;;;1.30;99.90;;;;;;5029862;28;20040;-74
2022/01/10 01:34:03;;;;;;;25.23;10.38;;;1.30;99.90;;;;;;5028789;28;20072;-75
2022/01/10 01:36:30;;;;;;;21.23;9.07;;;1.30;99.90;;;;;;5030222;28;20030;-75
2022/01/10 01:38:57;;;;;;;23.05;10.25;;;1.30;99.90;;;;;;5025061;28;20374;-74
2022/01/10 01:43:53;;;;;;;25.63;10.68;;;1.30;99.90;;;;;;5042784;28;20120;-70
2022/01/10 01:46:19;;;;;;;27.15;10.65;;;1.30;99.90;;;;;;5042116;28;20028;-75
2022/01/10 01:48:46;;;;;;;22.85;10.25;;;1.30;99.90;;;;;;5046722;28;20025;-74
2022/01/10 01:51:12;;;;;;;28.23;10.65;;;1.40;99.90;;;;;;5039675;28;20037;-74
2022/01/10 01:53:38;;;;;;;26.40;11.00;;;1.30;99.90;;;;;;5032567;28;20030;-74
2022/01/10 01:56:06;;;;;;;26.30;10.77;;;1.30;99.90;;;;;;5041434;28;20061;-75
2022/01/10 01:58:33;;;;;;;35.53;10.48;;;1.40;99.90;;;;;;5035259;28;20037;-73
2022/01/10 02:00:58;;;;;;;23.70;9.68;;;1.40;99.90;;;;;;5039651;28;20045;-75
2022/01/10 02:03:24;;;;;;;26.08;9.57;;;1.40;99.90;;;;;;5029800;28;20033;-75
2022/01/10 02:05:50;;;;;;;25.05;9.82;;;1.40;99.90;;;;;;5042078;28;20048;-75
2022/01/10 02:08:16;;;;;;;26.10;10.70;;;1.40;99.90;;;;;;5041592;28;20440;-73
2022/01/10 02:10:42;;;;;;;22.40;10.13;;;1.40;99.90;;;;;;5040788;28;20043;-74
2022/01/10 02:13:07;;;;;;;170.73;17.48;;;1.40;99.90;;;;;;5044153;28;20393;-73
2022/01/10 02:15:43;;;;;;;140.98;14.40;;;1.40;99.90;;;;;;5040460;28;20029;-74
2022/01/10 02:18:09;;;;;;;30.15;10.15;;;1.30;99.90;;;;;;5031105;28;20021;-75
2022/01/10 02:20:35;;;;;;;26.55;9.85;;;1.30;99.90;;;;;;5031388;28;20581;-74
2022/01/10 02:23:01;;;;;;;51.33;10.93;;;1.30;99.90;;;;;;5040605;28;20461;-74
2022/01/10 02:25:27;;;;;;;24.90;10.57;;;1.30;99.90;;;;;;5030368;28;20052;-74
2022/01/10 02:27:54;;;;;;;31.60;11.63;;;1.20;99.90;;;;;;5034388;28;20123;-74
2022/01/10 02:30:20;;;;;;;26.83;10.48;;;1.20;99.90;;;;;;5035096;28;20029;-75
2022/01/10 02:32:46;;;;;;;24.38;10.45;;;1.20;99.90;;;;;;5019096;28;20079;-75
2022/01/10 02:35:32;;;;;;;28.05;10.52;;;1.20;99.90;;;;;;5046997;28;20036;-74
2022/01/10 02:37:58;;;;;;;23.30;10.23;;;1.30;99.90;;;;;;5038493;28;20033;-72
2022/01/10 02:40:26;;;;;;;27.30;10.32;;;1.30;99.90;;;;;;5044210;28;20132;-74
2022/01/10 02:42:53;;;;;;;29.40;11.20;;;1.20;99.90;;;;;;5034403;28;20043;-73
2022/01/10 02:45:20;;;;;;;26.83;10.70;;;1.20;99.90;;;;;;5036688;28;20025;-74
2022/01/10 02:47:47;;;;;;;27.85;10.82;;;1.20;99.90;;;;;;5035017;28;20117;-74
2022/01/10 02:50:14;;;;;;;33.03;12.18;;;1.20;99.90;;;;;;5035117;28;20041;-75
2022/01/10 02:52:40;;;;;;;32.03;12.27;;;1.20;99.90;;;;;;5046281;28;20033;-74
2022/01/10 02:55:08;;;;;;;31.83;12.10;;;1.20;99.90;;;;;;5037189;28;20487;-74
2022/01/10 02:57:34;;;;;;;36.25;12.35;;;1.30;99.90;;;;;;5037305;28;20036;-74
2022/01/10 03:00:07;;;;;;;31.63;12.68;;;1.30;99.90;;;;;;5035388;28;20697;-73
2022/01/10 03:02:34;;;;;;;28.88;12.35;;;1.30;99.90;;;;;;5044004;28;20064;-74
2022/01/10 03:05:00;;;;;;;29.33;11.82;;;1.20;99.90;;;;;;5038755;28;20017;-70
2022/01/10 03:07:27;;;;;;;31.40;12.73;;;1.30;99.90;;;;;;5047767;28;20037;-75
2022/01/10 03:09:54;;;;;;;29.75;11.50;;;1.30;99.90;;;;;;5030482;28;20486;-75
2022/01/10 03:12:20;;;;;;;29.50;11.95;;;1.30;99.90;;;;;;5028887;28;20017;-75
2022/01/10 03:14:46;;;;;;;25.50;10.57;;;1.40;99.90;;;;;;5014515;28;20076;-74
2022/01/10 03:17:13;;;;;;;48.60;10.80;;;1.40;99.90;;;;;;5036218;28;20557;-75
2022/01/10 03:19:40;;;;;;;62.55;11.32;;;1.40;99.90;;;;;;5045952;28;20063;-75
2022/01/10 03:22:07;;;;;;;77.07;11.38;;;1.40;99.90;;;;;;5034072;28;20037;-73
2022/01/10 03:24:33;;;;;;;258.33;16.92;;;1.30;99.90;;;;;;5040335;28;20044;-75
2022/01/10 03:26:59;;;;;;;66.53;12.30;;;1.30;99.90;;;;;;5037155;28;20424;-72
2022/01/10 03:29:24;;;;;;;33.35;11.63;;;1.30;99.90;;;;;;5047222;28;20029;-75
2022/01/10 03:31:50;;;;;;;29.35;11.40;;;1.30;99.90;;;;;;5048612;28;20037;-75
2022/01/10 03:34:16;;;;;;;32.70;12.20;;;1.40;99.90;;;;;;5045752;28;20511;-74
2022/01/10 03:36:43;;;;;;;34.97;13.48;;;1.30;99.90;;;;;;5046022;28;20039;-74
2022/01/10 03:39:11;;;;;;;37.65;13.70;;;1.40;99.90;;;;;;5041158;28;21811;-73
2022/01/10 03:41:37;;;;;;;36.45;13.82;;;1.30;99.90;;;;;;5042114;28;20041;-73
2022/01/10 03:44:05;;;;;;;42.63;15.40;;;1.30;99.90;;;;;;5038258;28;20086;-73
2022/01/10 03:46:33;;;;;;;37.85;14.55;;;1.30;99.90;;;;;;5043695;28;20032;-72
2022/01/10 03:49:03;;;;;;;44.40;14.27;;;1.30;99.90;;;;;;5040062;28;20080;-72
2022/01/10 03:51:30;;;;;;;36.47;14.32;;;1.30;99.90;;;;;;5035579;28;20032;-73
2022/01/10 03:53:56;;;;;;;40.47;14.43;;;1.20;99.90;;;;;;5048333;28;20059;-72
2022/01/10 03:56:24;;;;;;;37.22;14.23;;;1.20;99.90;;;;;;5048524;28;20086;-73
2022/01/10 03:58:50;;;;;;;35.38;14.40;;;1.30;99.90;;;;;;5051469;28;20053;-74
2022/01/10 04:01:16;;;;;;;41.35;14.98;;;1.20;99.90;;;;;;5035971;28;20086;-73
2022/01/10 04:03:41;;;;;;;37.13;14.38;;;1.20;99.90;;;;;;5042051;28;20040;-74
2022/01/10 04:06:08;;;;;;;41.92;15.40;;;1.30;99.90;;;;;;5038676;28;20033;-74
2022/01/10 04:08:35;;;;;;;34.50;13.57;;;1.30;99.90;;;;;;5050944;28;20067;-73
2022/01/10 04:11:01;;;;;;;34.30;12.25;;;1.30;99.90;;;;;;5031813;28;20123;-72
2022/01/10 04:13:27;;;;;;;30.98;13.20;;;1.30;99.90;;;;;;5048897;28;20060;-74
2022/01/10 04:15:53;;;;;;;31.52;12.45;;;1.30;99.90;;;;;;5048953;28;20060;-74
2022/01/10 04:18:19;;;;;;;34.85;13.32;;;1.40;99.90;;;;;;5040791;28;20053;-74
2022/01/10 04:20:46;;;;;;;34.08;13.43;;;1.40;99.90;;;;;;5035829;28;20359;-74
2022/01/10 04:23:13;;;;;;;36.22;13.50;;;1.40;99.90;;;;;;5031502;28;20117;-73
2022/01/10 04:25:39;;;;;;;31.05;13.15;;;1.40;99.90;;;;;;5032058;28;20486;-74
2022/01/10 04:28:05;;;;;;;34.22;13.55;;;1.50;99.90;;;;;;5029999;28;20031;-73
2022/01/10 04:30:31;;;;;;;33.63;13.88;;;1.50;99.90;;;;;;5031731;28;20033;-74
2022/01/10 04:32:58;;;;;;;30.65;13.35;;;1.50;99.90;;;;;;5039120;28;20046;-73
2022/01/10 04:35:25;;;;;;;31.40;12.90;;;1.50;99.90;;;;;;5035872;28;20106;-75
2022/01/10 04:37:51;;;;;;;30.45;12.80;;;1.50;99.90;;;;;;5040659;28;20033;-76
2022/01/10 04:40:17;;;;;;;31.20;12.98;;;1.50;99.90;;;;;;5030682;28;20389;-75
2022/01/10 04:42:43;;;;;;;31.05;12.63;;;1.50;99.90;;;;;;5031526;28;20566;-76
2022/01/10 04:45:10;;;;;;;31.85;12.63;;;1.60;99.90;;;;;;5046851;28;20099;-75
2022/01/10 04:47:36;;;;;;;33.30;13.05;;;1.60;99.90;;;;;;5050287;28;20029;-75
2022/01/10 04:50:23;;;;;;;33.17;13.82;;;1.50;99.90;;;;;;5032290;28;20528;-73
2022/01/10 04:52:51;;;;;;;30.73;12.77;;;1.50;99.90;;;;;;5048866;28;20386;-75
2022/01/10 04:55:17;;;;;;;36.28;14.63;;;1.50;99.90;;;;;;5035866;28;20033;-76
2022/01/10 04:57:43;;;;;;;31.58;13.25;;;1.50;99.90;;;;;;5032957;28;20033;-76
2022/01/10 05:00:12;;;;;;;38.85;14.73;;;1.50;99.90;;;;;;5045978;28;20087;-75
2022/01/10 05:02:39;;;;;;;38.38;14.88;;;1.50;99.90;;;;;;5050738;28;20025;-75
2022/01/10 05:05:05;;;;;;;34.10;13.25;;;1.50;99.90;;;;;;5049180;28;20037;-73
2022/01/10 05:07:31;;;;;;;41.78;14.68;;;1.60;99.90;;;;;;5048559;28;20037;-75
2022/01/10 05:10:00;;;;;;;35.60;13.88;;;1.50;99.90;;;;;;5050784;28;20036;-75
2022/01/10 05:12:27;;;;;;;36.88;14.95;;;1.50;99.90;;;;;;5048404;28;20089;-75
2022/01/10 05:14:53;;;;;;;37.67;15.00;;;1.50;99.90;;;;;;5047692;28;20049;-74
2022/01/10 05:17:21;;;;;;;35.17;14.80;;;1.50;99.90;;;;;;5049747;28;20033;-75
2022/01/10 05:19:46;;;;;;;29.08;13.35;;;1.40;99.90;;;;;;5036252;28;20032;-75
2022/01/10 05:22:12;;;;;;;40.65;15.40;;;1.40;99.90;;;;;;5036049;28;20033;-74
2022/01/10 05:24:38;;;;;;;35.83;14.52;;;1.40;99.90;;;;;;5032552;28;20036;-76
2022/01/10 05:27:04;;;;;;;41.05;15.85;;;1.40;99.90;;;;;;5048163;28;20086;-76
2022/01/10 05:29:30;;;;;;;41.75;15.73;;;1.40;99.90;;;;;;5046722;28;20056;-76
2022/01/10 05:31:55;;;;;;;168.82;21.63;;;1.40;99.90;;;;;;5048860;28;20064;-76
2022/01/10 05:34:21;;;;;;;33.83;13.82;;;1.40;99.90;;;;;;5048322;28;20032;-76
2022/01/10 05:36:47;;;;;;;39.88;15.10;;;1.40;99.90;;;;;;5048938;28;20083;-75
2022/01/10 05:39:12;;;;;;;38.03;14.70;;;1.40;99.90;;;;;;5048576;28;20772;-75
2022/01/10 05:41:38;;;;;;;40.25;15.45;;;1.30;99.90;;;;;;5045730;28;20504;-76
2022/01/10 05:44:05;;;;;;;46.60;16.38;;;1.30;99.90;;;;;;5045382;28;20385;-75
2022/01/10 05:46:31;;;;;;;38.92;15.00;;;1.30;99.90;;;;;;5048049;28;20029;-76
2022/01/10 05:49:01;;;;;;;40.00;14.98;;;1.40;99.90;;;;;;5046826;28;20051;-76
2022/01/10 05:51:34;;;;;;;35.70;13.85;;;1.40;99.90;;;;;;5024660;28;20025;-75
2022/01/10 05:54:01;;;;;;;38.45;14.00;;;1.30;99.90;;;;;;5036054;28;20037;-76
2022/01/10 05:56:27;;;;;;;31.13;13.27;;;1.30;99.90;;;;;;5035703;28;20680;-76
2022/01/10 05:58:53;;;;;;;37.15;15.15;;;1.20;99.90;;;;;;5038290;28;20104;-74
2022/01/10 06:01:19;;;;;;;34.03;13.80;;;1.20;99.90;;;;;;5043745;28;20040;-76
2022/01/10 06:03:45;;;;;;;33.35;13.52;;;1.20;99.90;;;;;;5035193;28;20024;-75
2022/01/10 06:06:10;;;;;;;37.28;14.60;;;1.30;99.90;;;;;;5034566;28;20032;-73
2022/01/10 06:08:36;;;;;;;40.28;15.15;;;1.20;99.90;;;;;;5042565;28;20846;-76
2022/01/10 06:11:02;;;;;;;37.53;14.75;;;1.20;99.90;;;;;;5042864;28;20112;-76
2022/01/10 06:13:27;;;;;;;34.47;13.95;;;1.30;99.90;;;;;;5039582;28;20520;-76
2022/01/10 06:15:53;;;;;;;39.72;14.88;;;1.30;99.90;;;;;;5037554;28;20048;-75
2022/01/10 06:18:19;;;;;;;32.03;13.77;;;1.30;99.90;;;;;;5042899;28;20033;-76
2022/01/10 06:20:45;;;;;;;34.85;13.60;;;1.30;99.90;;;;;;5048431;28;20042;-75
2022/01/10 06:23:11;;;;;;;35.47;13.48;;;1.30;99.90;;;;;;5029321;28;20045;-73
2022/01/10 06:25:38;;;;;;;29.83;12.50;;;1.30;99.90;;;;;;5037828;28;20044;-74
2022/01/10 06:28:05;;;;;;;33.38;12.43;;;1.20;99.90;;;;;;5038004;28;20490;-74
2022/01/10 06:30:31;;;;;;;30.30;11.10;;;1.20;99.90;;;;;;5048410;28;20104;-75
2022/01/10 06:32:57;;;;;;;33.55;11.80;;;1.20;99.90;;;;;;5045428;28;20140;-76
2022/01/10 06:35:23;;;;;;;30.05;11.40;;;1.20;99.90;;;;;;5024231;28;20018;-75
2022/01/10 06:37:49;;;;;;;35.10;11.63;;;1.20;99.90;;;;;;5044326;28;20087;-75
2022/01/10 06:40:15;;;;;;;34.08;11.07;;;1.30;99.90;;;;;;5033591;28;20029;-75
2022/01/10 06:42:40;;;;;;;32.72;10.98;;;1.30;99.90;;;;;;5029116;28;20496;-75
2022/01/10 06:45:07;;;;;;;33.08;11.43;;;1.30;99.90;;;;;;5030111;28;20069;-73
2022/01/10 06:47:33;;;;;;;29.98;10.75;;;1.30;99.90;;;;;;5035095;28;20892;-73
2022/01/10 06:49:58;;;;;;;33.80;11.20;;;1.30;99.90;;;;;;5014414;28;20060;-73
2022/01/10 06:52:24;;;;;;;32.53;11.23;;;1.30;99.90;;;;;;5036169;28;20437;-72
2022/01/10 06:54:50;;;;;;;31.17;10.38;;;1.30;99.90;;;;;;5039158;28;20041;-73
2022/01/10 06:57:16;;;;;;;25.70;9.05;;;1.30;99.90;;;;;;5047112;28;20492;-73
2022/01/10 06:59:42;;;;;;;26.05;9.05;;;1.30;99.90;;;;;;5033112;28;20490;-73
2022/01/10 07:02:08;;;;;;;27.75;9.07;;;1.30;99.90;;;;;;5033847;28;20095;-73
2022/01/10 07:04:34;;;;;;;27.52;9.10;;;1.20;99.90;;;;;;5042380;28;20025;-73
2022/01/10 07:07:00;;;;;;;24.10;9.60;;;1.20;99.90;;;;;;5037171;28;20029;-73
2022/01/10 07:09:25;;;;;;;30.80;9.82;;;1.30;99.90;;;;;;5046086;28;20028;-73
2022/01/10 07:11:51;;;;;;;43.30;15.18;;;1.30;99.90;;;;;;5041145;28;20452;-75
2022/01/10 07:14:17;;;;;;;45.75;16.42;;;1.30;99.90;;;;;;5043227;28;20054;-73
2022/01/10 07:16:43;;;;;;;311.35;25.48;;;1.30;99.90;;;;;;5036064;28;20034;-77
2022/01/10 07:19:09;;;;;;;45.80;15.10;;;1.40;99.90;;;;;;5043854;28;20078;-75
2022/01/10 07:21:39;;;;;;;42.13;16.55;;;1.30;99.90;;;;;;5033827;28;20044;-75
2022/01/10 07:24:06;;;;;;;39.63;15.32;;;1.30;99.90;;;;;;5042580;28;20029;-74
2022/01/10 07:26:32;;;;;;;34.58;14.20;;;1.30;99.90;;;;;;5047515;28;20036;-76
2022/01/10 07:28:59;;;;;;;34.25;12.90;;;1.30;99.90;;;;;;5040563;28;20078;-74
2022/01/10 07:31:27;;;;;;;34.13;13.13;;;1.30;99.90;;;;;;5025384;28;20121;-74
2022/01/10 07:33:54;;;;;;;34.95;13.40;;;1.30;99.90;;;;;;5037441;28;20034;-77
2022/01/10 07:36:20;;;;;;;31.33;11.98;;;1.30;99.90;;;;;;5046577;28;20128;-75
2022/01/10 07:38:46;;;;;;;29.80;11.07;;;1.30;99.90;;;;;;5048845;28;20108;-77
2022/01/10 07:41:12;;;;;;;34.47;12.30;;;1.40;99.90;;;;;;5029295;28;20049;-78
2022/01/10 07:43:37;;;;;;;31.20;10.57;;;1.40;99.90;;;;;;5043566;28;20116;-75
2022/01/10 07:46:04;;;;;;;36.70;12.25;;;1.40;99.90;;;;;;5050402;28;20079;-75
2022/01/10 07:48:32;;;;;;;31.15;11.30;;;1.50;99.90;;;;;;5037704;28;20443;-76
2022/01/10 07:50:58;;;;;;;30.00;11.45;;;1.50;99.90;;;;;;5040066;28;20048;-76
2022/01/10 07:53:23;;;;;;;32.38;10.75;;;1.50;99.90;;;;;;5047551;28;20029;-74
2022/01/10 07:55:50;;;;;;;31.58;9.77;;;1.50;99.90;;;;;;5047772;28;20056;-76
2022/01/10 07:58:17;;;;;;;27.45;10.02;;;1.50;99.90;;;;;;5044696;28;20080;-75
2022/01/10 08:00:43;;;;;;;27.88;10.40;;;1.50;99.90;;;;;;5040046;28;20049;-75
2022/01/10 08:03:09;;;;;;;34.33;12.20;;;1.60;99.90;;;;;;5048370;28;20021;-75
2022/01/10 08:05:34;;;;;;;28.30;11.68;;;1.60;99.90;;;;;;5037148;28;20212;-76
2022/01/10 08:08:00;;;;;;;55.65;21.20;;;1.60;99.90;;;;;;5037205;28;20147;-74
2022/01/10 08:10:26;;;;;;;47.72;19.85;;;1.60;99.90;;;;;;5035395;28;20175;-74
2022/01/10 08:12:52;;;;;;;32.63;11.63;;;1.70;99.90;;;;;;5042980;28;20435;-75
2022/01/10 08:15:19;;;;;;;35.65;11.20;;;1.70;99.90;;;;;;5013224;28;20120;-74
2022/01/10 08:17:46;;;;;;;30.88;10.23;;;1.70;99.90;;;;;;5038362;28;20478;-76
2022/01/10 08:20:13;;;;;;;32.15;10.27;;;1.80;99.90;;;;;;5044872;28;20104;-76
2022/01/10 08:22:39;;;;;;;29.52;9.38;;;1.80;99.90;;;;;;5040456;28;20132;-75
2022/01/10 08:25:07;;;;;;;31.25;10.88;;;1.80;99.90;;;;;;5042504;28;20136;-77
2022/01/10 08:27:34;;;;;;;39.92;10.27;;;1.80;99.90;;;;;;5046808;28;20104;-75
2022/01/10 08:30:00;;;;;;;30.33;9.75;;;1.80;99.90;;;;;;5023165;28;20025;-76
2022/01/10 08:32:26;;;;;;;28.05;10.13;;;1.80;99.90;;;;;;5039844;28;20056;-74
2022/01/10 08:34:52;;;;;;;26.15;10.57;;;1.80;99.90;;;;;;5048723;28;20025;-74
2022/01/10 08:37:18;;;;;;;29.52;11.50;;;1.80;99.90;;;;;;5050408;28;20074;-73
2022/01/10 08:39:49;;;;;;;29.85;10.63;;;1.80;99.90;;;;;;5050729;28;20147;-75
2022/01/10 08:42:18;;;;;;;;;;;1.80;99.90;;;;;;5050934;28;20037;-74
2022/01/10 08:44:43;;;;;;;26.98;9.88;;;1.80;99.90;;;;;;5050589;28;19966;-75
2022/01/10 08:47:09;;;;;;;28.60;10.38;;;1.70;99.90;;;;;;5037385;28;20465;-74
2022/01/10 08:49:35;;;;;;;34.17;11.98;;;1.70;99.90;;;;;;5020672;28;20032;-75
2022/01/10 08:52:01;;;;;;;31.02;11.85;;;1.70;99.90;;;;;;5050286;28;20029;-75
2022/01/10 08:54:27;;;;;;;33.95;11.63;;;1.70;99.90;;;;;;5049428;28;20674;-74
2022/01/10 08:56:53;;;;;;;33.63;12.20;;;1.70;99.90;;;;;;5049494;28;20454;-74
2022/01/10 08:59:20;;;;;;;36.63;13.02;;;1.70;99.90;;;;;;5031889;28;20033;-74
2022/01/10 09:01:46;;;;;;;36.30;12.60;;;1.70;99.90;;;;;;5049793;28;20117;-76
2022/01/10 09:04:16;;;;;;;34.17;12.82;;;1.70;99.90;;;;;;5050220;28;20025;-75
2022/01/10 09:06:50;;;;;;;39.22;12.70;;;1.70;99.90;;;;;;5049615;28;20029;-75
2022/01/10 09:09:17;;;;;;;41.47;13.40;;;1.70;99.90;;;;;;5050490;28;20033;-75
2022/01/10 09:11:44;;;;;;;33.05;11.20;;;1.70;99.90;;;;;;5049434;28;20052;-74
2022/01/10 09:14:10;;;;;;;33.10;11.40;;;1.70;99.90;;;;;;5031561;28;20078;-75
2022/01/10 09:16:37;;;;;;;43.72;11.50;;;1.70;99.90;;;;;;5049294;28;20032;-75
2022/01/10 09:19:04;;;;;;;33.95;10.90;;;1.80;99.90;;;;;;5031568;28;20029;-75
2022/01/10 09:21:29;;;;;;;32.30;11.73;;;1.80;99.90;;;;;;5048439;28;20112;-74
2022/01/10 09:23:55;;;;;;;37.42;12.57;;;1.90;99.90;;;;;;5049727;28;20103;-75
2022/01/10 09:26:23;;;;;;;20.80;7.63;;;1.90;99.90;;;;;;5048841;28;20103;-72
2022/01/10 09:28:49;;;;;;;30.00;10.18;;;1.90;99.90;;;;;;5049568;28;20035;-75
2022/01/10 09:31:15;;;;;;;30.50;9.68;;;2.00;99.90;;;;;;5049808;28;20047;-75
2022/01/10 09:33:42;;;;;;;29.02;9.65;;;2.10;99.90;;;;;;5049024;28;20017;-75
2022/01/10 09:36:08;;;;;;;42.15;15.23;;;2.10;99.90;;;;;;5049084;28;20587;-75
2022/01/10 09:38:35;;;;;;;31.90;10.35;;;2.20;99.90;;;;;;5048449;28;20078;-74
2022/01/10 09:41:00;;;;;;;38.05;13.20;;;2.20;99.90;;;;;;5049826;28;20457;-76
2022/01/10 09:43:26;;;;;;;37.25;9.55;;;2.30;99.90;;;;;;5048497;28;20108;-75
2022/01/10 09:45:54;;;;;;;32.85;10.75;;;2.30;99.90;;;;;;5049466;28;20520;-75
2022/01/10 09:48:20;;;;;;;34.15;10.40;;;2.30;99.90;;;;;;5049475;28;20087;-74
2022/01/10 09:50:46;;;;;;;30.70;9.50;;;2.40;99.90;;;;;;5048959;28;20124;-77
2022/01/10 09:53:14;;;;;;;30.42;10.10;;;2.40;99.90;;;;;;5049063;28;20482;-74
2022/01/10 09:55:39;;;;;;;33.83;10.35;;;2.40;99.90;;;;;;5030558;28;20112;-76
2022/01/10 09:58:06;;;;;;;28.92;10.25;;;2.40;99.90;;;;;;5049632;28;20112;-76
2022/01/10 10:00:32;;;;;;;30.17;9.32;;;2.40;99.90;;;;;;5027013;28;20041;-76
2022/01/10 10:02:58;;;;;;;35.38;9.70;;;2.40;99.90;;;;;;5049115;28;20033;-75
2022/01/10 10:05:24;;;;;;;27.08;9.73;;;2.30;99.90;;;;;;5047754;28;20029;-74
2022/01/10 10:07:51;;;;;;;34.42;9.75;;;2.20;99.90;;;;;;5048912;28;20029;-74
2022/01/10 10:10:17;;;;;;;34.95;11.68;;;2.10;99.90;;;;;;5049320;28;20061;-75
2022/01/10 10:12:47;;;;;;;28.52;9.52;;;2.20;99.90;;;;;;5047545;28;20626;-76
2022/01/10 10:15:16;;;;;;;35.92;10.90;;;2.20;99.90;;;;;;5048699;28;20049;-74
2022/01/10 10:17:43;;;;;;;30.27;10.75;;;2.10;99.90;;;;;;5048639;28;20025;-76
2022/01/10 10:20:15;;;;;;;29.30;9.63;;;2.10;99.90;;;;;;5048876;28;20551;-76
2022/01/10 10:22:44;;;;;;;36.63;9.95;;;2.10;99.90;;;;;;5048161;28;20041;-74
2022/01/10 10:25:12;;;;;;;30.80;9.82;;;2.10;99.90;;;;;;5029255;28;20029;-75
2022/01/10 10:27:40;;;;;;;39.75;11.38;;;2.20;99.90;;;;;;5047392;28;20032;-75
2022/01/10 10:30:13;;;;;;;34.15;10.13;;;2.20;99.90;;;;;;5048492;28;20032;-76
2022/01/10 10:32:39;;;;;;;37.65;10.45;;;2.30;99.90;;;;;;5047948;28;20036;-76
2022/01/10 10:35:06;;;;;;;28.45;9.80;;;2.50;99.90;;;;;;5049038;28;20029;-76
2022/01/10 10:37:40;;;;;;;28.63;8.75;;;2.50;99.90;;;;;;5047764;28;20129;-76
2022/01/10 10:40:09;;;;;;;30.10;9.57;;;2.70;99.90;;;;;;5048831;28;20458;-75
2022/01/10 10:42:38;;;;;;;33.03;9.35;;;2.80;99.90;;;;;;5037782;28;20049;-76
2022/01/10 10:45:12;;;;;;;24.88;8.98;;;3.00;99.90;;;;;;5048814;28;20075;-74
2022/01/10 10:47:42;;;;;;;27.30;8.45;;;3.30;99.90;;;;;;5047770;28;20029;-75
2022/01/10 10:50:10;;;;;;;26.77;8.75;;;3.40;99.90;;;;;;5048440;28;20104;-75
2022/01/10 10:52:38;;;;;;;30.40;9.48;;;3.20;99.90;;;;;;5048101;28;20029;-77
2022/01/10 10:55:06;;;;;;;30.98;9.70;;;3.20;99.90;;;;;;5048556;28;20037;-76
2022/01/10 10:57:32;;;;;;;31.35;10.02;;;3.20;99.90;;;;;;5047646;28;20119;-77
2022/01/10 11:00:00;;;;;;;26.95;9.43;;;3.20;99.90;;;;;;5040686;28;20112;-75
2022/01/10 11:02:26;;;;;;;29.90;10.20;;;3.10;99.90;;;;;;5031797;28;20033;-75
2022/01/10 11:04:52;;;;;;;31.80;10.23;;;3.10;99.90;;;;;;5036481;28;20407;-75
2022/01/10 11:07:22;;;;;;;33.90;9.85;;;3.20;99.90;;;;;;5042865;28;20038;-76
2022/01/10 11:09:49;;;;;;;28.77;8.95;;;3.30;99.90;;;;;;5025279;28;20036;-75
2022/01/10 11:12:20;;;;;;;30.95;10.02;;;3.20;99.90;;;;;;5046185;28;20041;-79
2022/01/10 11:14:46;;;;;;;32.97;10.50;;;3.30;99.90;;;;;;5048024;28;20137;-75
2022/01/10 11:17:17;;;;;;;31.75;11.18;;;3.30;99.90;;;;;;5048893;28;20040;-78
2022/01/10 11:19:43;;;;;;;29.35;9.73;;;3.30;99.90;;;;;;5047794;28;20017;-75
2022/01/10 11:22:11;;;;;;;30.30;9.93;;;3.30;99.90;;;;;;5030124;28;20064;-74
2022/01/10 11:24:46;;;;;;;36.25;10.30;;;3.30;99.90;;;;;;5047820;28;20128;-74
2022/01/10 11:27:27;;;;;;;32.55;11.57;;;3.30;99.90;;;;;;5048390;28;20037;-76
2022/01/10 11:29:55;;;;;;;34.60;10.98;;;3.20;99.90;;;;;;5048110;28;20033;-76
2022/01/10 11:32:21;;;;;;;29.45;11.52;;;3.20;99.90;;;;;;5048313;28;20260;-75
2022/01/10 11:34:47;;;;;;;29.05;9.45;;;3.20;99.90;;;;;;5047778;28;20501;-75
2022/01/10 11:37:14;;;;;;;28.02;10.07;;;3.10;99.90;;;;;;5048423;28;20056;-77
2022/01/10 11:39:40;;;;;;;27.35;10.30;;;3.10;99.90;;;;;;5047182;28;20509;-75
2022/01/10 11:42:42;;;;;;;29.77;10.73;;;3.10;99.90;;;;;;5050806;28;20116;-75
2022/01/10 11:45:13;;;;;;;29.75;10.32;;;3.00;99.90;;;;;;5031794;28;20559;-76
2022/01/10 11:48:17;;;;;;;31.40;10.82;;;2.90;99.90;;;;;;5048829;28;20037;-76
2022/01/10 11:50:45;;;;;;;28.60;10.88;;;2.90;99.90;;;;;;4949469;29;20099;-77
2022/01/10 11:53:11;;;;;;;31.67;10.98;;;3.00;99.90;;;;;;4942561;29;20027;-76
2022/01/10 11:55:51;;;;;;;33.30;10.63;;;3.00;99.90;;;;;;4991535;28;20526;-77
2022/01/10 11:58:20;;;;;;;30.48;10.15;;;3.10;99.90;;;;;;5051372;28;20024;-76
2022/01/10 12:00:46;;;;;;;32.75;10.75;;;3.20;99.90;;;;;;5050690;28;20033;-76
2022/01/10 12:03:12;;;;;;;28.30;10.10;;;3.20;99.90;;;;;;5051382;28;20044;-75
2022/01/10 12:05:40;;;;;;;38.85;13.20;;;3.20;99.90;;;;;;5025700;28;20479;-79
2022/01/10 12:08:06;;;;;;;37.80;13.07;;;3.20;99.90;;;;;;5020751;28;20030;-78
2022/01/10 12:10:32;;;;;;;72.35;19.17;;;2.90;99.90;;;;;;5037527;28;20052;-77
2022/01/10 12:13:10;;;;;;;55.45;18.23;;;2.70;99.90;;;;;;5049098;28;20037;-78
2022/01/10 12:15:36;;;;;;;42.47;13.65;;;2.70;99.90;;;;;;5043058;28;20435;-76
2022/01/10 12:18:04;;;;;;;43.10;14.45;;;2.70;99.90;;;;;;5044065;28;20063;-76
2022/01/10 12:20:30;;;;;;;89.97;30.20;;;2.80;99.90;;;;;;5040237;28;20084;-75
2022/01/10 12:22:57;;;;;;;46.90;18.17;;;2.90;99.90;;;;;;5047456;28;20414;-78
2022/01/10 12:25:23;;;;;;;37.10;12.90;;;2.80;99.90;;;;;;5044542;28;20029;-76
2022/01/10 12:27:51;;;;;;;29.33;10.13;;;2.80;99.90;;;;;;5030906;28;20707;-77
2022/01/10 12:30:18;;;;;;;35.55;13.73;;;2.60;99.90;;;;;;5049341;28;20033;-75
2022/01/10 12:32:45;;;;;;;40.83;12.93;;;2.60;99.90;;;;;;5047565;28;20085;-75
2022/01/10 12:35:11;;;;;;;29.08;11.23;;;2.70;99.90;;;;;;5047275;28;20386;-77
2022/01/10 12:37:38;;;;;;;33.45;11.13;;;2.80;99.90;;;;;;5043479;28;20451;-75
2022/01/10 12:40:05;;;;;;;39.53;13.18;;;2.80;99.90;;;;;;5044133;28;20746;-74
2022/01/10 12:42:31;;;;;;;28.23;10.13;;;2.80;99.90;;;;;;5040184;28;20433;-73
2022/01/10 12:44:57;;;;;;;31.38;12.07;;;2.90;99.90;;;;;;5042478;28;20037;-76
2022/01/10 12:47:25;;;;;;;25.17;10.60;;;2.90;99.90;;;;;;5024946;28;20027;-73
2022/01/10 12:49:52;;;;;;;28.85;9.85;;;3.00;99.90;;;;;;5045124;28;20146;-75